createdAt,value
2023-04-13T00:04:58.555Z,100.00
2023-04-13T00:10:03.984Z,100.00
2023-04-13T00:15:10.696Z,100.00
2023-04-13T00:20:15.820Z,100.00
2023-04-13T00:25:20.179Z,100.00
2023-04-13T00:30:25.588Z,100.00
2023-04-13T00:35:29.478Z,100.00
2023-04-13T00:40:37.824Z,100.00
2023-04-13T00:45:43.493Z,100.00
2023-04-13T00:50:48.475Z,100.00
2023-04-13T00:55:53.326Z,100.00
2023-04-13T01:00:58.697Z,100.00
2023-04-13T01:06:09.553Z,100.00
2023-04-13T01:11:21.044Z,100.00
2023-04-13T01:16:32.265Z,100.00
2023-04-13T01:21:40.686Z,100.00
2023-04-13T01:26:54.589Z,100.00
2023-04-13T01:32:02.906Z,100.00
2023-04-13T01:37:09.132Z,100.00
2023-04-13T01:42:13.525Z,100.00
2023-04-13T01:47:25.701Z,100.00
2023-04-13T01:52:44.683Z,100.00
2023-04-13T01:57:55.152Z,100.00
2023-04-13T02:03:01.897Z,100.00
2023-04-13T02:08:07.529Z,100.00
2023-04-13T02:13:16.179Z,100.00
2023-04-13T02:18:25.812Z,100.00
2023-04-13T02:23:31.510Z,100.00
2023-04-13T02:28:36.247Z,100.00
2023-04-13T02:33:43.785Z,100.00
2023-04-13T02:38:47.880Z,100.00
2023-04-13T02:44:01.743Z,100.00
2023-04-13T02:49:13.488Z,100.00
2023-04-13T02:54:28.613Z,100.00
2023-04-13T02:59:34.035Z,100.00
2023-04-13T03:04:43.356Z,100.00
2023-04-13T03:09:53.705Z,100.00
2023-04-13T03:15:03.797Z,100.00
2023-04-13T03:20:13.427Z,100.00
2023-04-13T03:25:22.588Z,100.00
2023-04-13T03:30:26.788Z,100.00
2023-04-13T03:35:36.181Z,100.00
2023-04-13T03:40:43.497Z,100.00
2023-04-13T03:45:48.306Z,100.00
2023-04-13T03:50:56.316Z,100.00
2023-04-13T03:56:07.201Z,100.00
2023-04-13T04:01:12.282Z,100.00
2023-04-13T04:06:27.234Z,100.00
2023-04-13T04:11:43.552Z,100.00
2023-04-13T04:16:49.200Z,100.00
2023-04-13T04:21:58.074Z,100.00
2023-04-13T04:27:07.820Z,100.00
2023-04-13T04:32:12.960Z,100.00
2023-04-13T04:37:22.878Z,100.00
2023-04-13T04:42:46.393Z,100.00
2023-04-13T04:48:06.395Z,100.00
2023-04-13T04:53:15.043Z,100.00
2023-04-13T04:58:22.393Z,100.00
2023-04-13T05:03:34.580Z,100.00
2023-04-13T05:08:58.057Z,100.00
2023-04-13T05:14:04.155Z,100.00
2023-04-13T05:19:09.767Z,100.00
2023-04-13T05:24:28.008Z,100.00
2023-04-13T05:29:35.570Z,100.00
2023-04-13T05:34:39.921Z,100.00
2023-04-13T05:39:56.569Z,100.00
2023-04-13T05:45:10.655Z,100.00
2023-04-13T05:50:26.065Z,100.00
2023-04-13T05:55:31.523Z,100.00
2023-04-13T06:00:40.117Z,100.00
2023-04-13T06:05:49.538Z,92.53
2023-04-13T06:10:54.948Z,100.00
2023-04-13T06:15:59.134Z,100.00
2023-04-13T06:21:03.729Z,99.49
2023-04-13T06:26:12.469Z,100.00
2023-04-13T06:31:27.740Z,100.00
2023-04-13T06:36:35.034Z,94.65
2023-04-13T06:41:41.615Z,89.98
2023-04-13T06:46:53.507Z,87.94
2023-04-13T06:51:59.464Z,92.54
2023-04-13T06:57:05.297Z,95.26
2023-04-13T07:02:10.788Z,93.43
2023-04-13T07:07:15.297Z,88.06
2023-04-13T07:12:21.922Z,95.43
2023-04-13T07:17:26.398Z,97.46
2023-04-13T07:22:33.822Z,92.32
2023-04-13T07:27:39.453Z,91.73
2023-04-13T07:32:43.713Z,89.10
2023-04-13T07:37:52.168Z,84.81
2023-04-13T07:42:59.581Z,85.13
2023-04-13T07:48:06.915Z,78.88
2023-04-13T07:53:13.357Z,84.19
2023-04-13T07:58:22.005Z,83.79
2023-04-13T08:03:26.423Z,91.12
2023-04-13T08:08:30.715Z,91.72
2023-04-13T08:13:36.875Z,88.43
2023-04-13T08:18:41.433Z,84.76
2023-04-13T08:23:46.981Z,84.67
2023-04-13T08:28:53.948Z,81.00
2023-04-13T08:33:58.169Z,80.85
2023-04-13T08:39:02.944Z,83.17
2023-04-13T08:44:10.194Z,76.46
2023-04-13T08:49:17.807Z,69.99
2023-04-13T08:54:46.385Z,74.53
2023-04-13T09:00:11.567Z,72.71
2023-04-13T09:05:17.078Z,74.43
2023-04-13T09:10:27.727Z,77.13
2023-04-13T09:15:33.853Z,70.96
2023-04-13T09:21:01.690Z,74.38
2023-04-13T09:26:07.351Z,70.52
2023-04-13T09:31:15.715Z,65.54
2023-04-13T09:36:21.844Z,67.17
2023-04-13T09:41:33.607Z,69.72
2023-04-13T09:46:39.322Z,73.44
2023-04-13T09:51:43.168Z,69.22
2023-04-13T09:56:48.352Z,68.25
2023-04-13T10:01:54.908Z,75.31
2023-04-13T10:06:59.461Z,64.48
2023-04-13T10:12:06.207Z,63.39
2023-04-13T10:17:36.256Z,59.83
2023-04-13T10:22:47.323Z,56.81
2023-04-13T10:27:59.275Z,65.35
2023-04-13T10:33:08.398Z,57.16
2023-04-13T10:38:15.335Z,47.30
2023-04-13T10:43:28.522Z,46.44
2023-04-13T10:48:34.478Z,49.09
2023-04-13T10:53:38.647Z,51.80
2023-04-13T10:58:43.398Z,61.18
2023-04-13T11:04:01.259Z,55.91
2023-04-13T11:09:13.151Z,50.43
2023-04-13T11:14:39.496Z,44.84
2023-04-13T11:19:50.585Z,45.35
2023-04-13T11:24:55.080Z,38.22
2023-04-13T11:30:05.418Z,40.52
2023-04-13T11:35:27.306Z,35.95
2023-04-13T11:40:31.731Z,38.05
2023-04-13T11:45:35.782Z,40.92
2023-04-13T11:50:41.844Z,45.45
2023-04-13T11:55:53.452Z,46.05
2023-04-13T12:01:03.284Z,42.48
2023-04-13T12:06:10.671Z,39.13
2023-04-13T12:11:40.487Z,37.19
2023-04-13T12:21:56.748Z,31.65
2023-04-13T12:32:15.096Z,31.02
2023-04-13T12:37:20.741Z,29.49
2023-04-13T12:42:24.640Z,32.71
2023-04-13T12:47:28.625Z,33.38
2023-04-13T12:52:34.231Z,31.89
2023-04-13T12:57:39.788Z,30.04
2023-04-13T13:02:44.324Z,30.06
2023-04-13T13:07:49.740Z,28.50
2023-04-13T13:12:54.352Z,30.66
2023-04-13T13:18:00.941Z,30.15
2023-04-13T13:23:06.828Z,32.31
2023-04-13T13:28:14.519Z,29.10
2023-04-13T13:33:19.908Z,29.67
2023-04-13T13:38:25.754Z,29.41
2023-04-13T13:43:29.974Z,30.70
2023-04-13T13:48:34.276Z,31.76
2023-04-13T13:54:15.352Z,29.57
2023-04-13T13:59:19.586Z,31.42
2023-04-13T14:04:23.636Z,32.52
2023-04-13T14:09:30.206Z,30.40
2023-04-13T14:14:36.376Z,30.38
2023-04-13T14:19:40.511Z,31.09
2023-04-13T14:24:46.550Z,33.45
2023-04-13T14:29:50.568Z,33.70
2023-04-13T14:34:54.892Z,31.00
2023-04-13T14:40:00.447Z,29.66
2023-04-13T14:45:05.377Z,30.41
2023-04-13T14:50:15.825Z,30.58
2023-04-13T14:55:22.982Z,33.41
2023-04-13T15:00:39.055Z,37.36
2023-04-13T15:05:46.257Z,40.63
2023-04-13T15:10:52.057Z,42.71
2023-04-13T15:15:56.800Z,43.49
2023-04-13T15:21:03.290Z,42.60
2023-04-13T15:26:09.038Z,38.58
2023-04-13T15:31:15.844Z,39.90
2023-04-13T15:36:19.963Z,42.83
2023-04-13T15:41:27.668Z,43.83
2023-04-13T15:46:33.565Z,44.78
2023-04-13T15:51:45.360Z,44.88
2023-04-13T15:56:51.678Z,40.27
2023-04-13T16:01:55.761Z,37.59
2023-04-13T16:12:08.730Z,48.18
2023-04-13T16:17:13.324Z,50.71
2023-04-13T16:22:18.058Z,52.21
2023-04-13T16:27:23.616Z,49.88
2023-04-13T16:32:27.920Z,49.70
2023-04-13T16:37:32.273Z,50.17
2023-04-13T16:42:38.030Z,52.89
2023-04-13T16:47:42.411Z,53.11
2023-04-13T16:52:50.325Z,53.33
2023-04-13T16:57:57.523Z,52.01
2023-04-13T17:03:02.458Z,52.01
2023-04-13T17:08:09.927Z,54.76
2023-04-13T17:13:15.457Z,54.50
2023-04-13T17:18:19.567Z,53.79
2023-04-13T17:23:24.946Z,53.49
2023-04-13T17:28:30.819Z,55.41
2023-04-13T17:33:35.447Z,53.83
2023-04-13T17:38:40.566Z,53.64
2023-04-13T17:44:15.844Z,54.92
2023-04-13T17:49:22.918Z,57.37
2023-04-13T17:54:27.440Z,56.27
2023-04-13T17:59:33.406Z,57.24
2023-04-13T18:04:37.757Z,59.19
2023-04-13T18:09:42.190Z,58.56
2023-04-13T18:14:47.956Z,58.50
2023-04-13T18:20:01.008Z,59.35
2023-04-13T18:25:06.411Z,57.51
2023-04-13T18:30:13.438Z,58.65
2023-04-13T18:35:17.842Z,60.27
2023-04-13T18:40:22.081Z,62.07
2023-04-13T18:45:27.773Z,61.61
2023-04-13T18:50:32.042Z,60.63
2023-04-13T18:55:36.381Z,60.22
2023-04-13T19:00:42.156Z,62.03
2023-04-13T19:05:46.447Z,64.71
2023-04-13T19:10:50.589Z,65.15
2023-04-13T19:15:57.800Z,66.30
2023-04-13T19:21:02.721Z,67.32
2023-04-13T19:26:07.006Z,68.40
2023-04-13T19:31:13.117Z,68.93
2023-04-13T19:36:17.297Z,71.76
2023-04-13T19:41:21.372Z,73.76
2023-04-13T19:46:29.462Z,73.03
2023-04-13T19:51:33.693Z,74.20
2023-04-13T19:56:38.108Z,81.21
2023-04-13T20:01:46.113Z,81.49
2023-04-13T20:06:50.538Z,87.70
2023-04-13T20:11:54.837Z,86.78
2023-04-13T20:17:00.459Z,86.41
2023-04-13T20:22:05.229Z,88.76
2023-04-13T20:27:10.250Z,95.08
2023-04-13T20:32:16.047Z,94.66
2023-04-13T20:37:20.426Z,91.81
2023-04-13T20:42:25.040Z,90.04
2023-04-13T20:47:32.209Z,88.91
2023-04-13T20:52:36.819Z,96.14
2023-04-13T20:57:44.276Z,100.00
2023-04-13T21:02:50.207Z,100.00
2023-04-13T21:07:56.902Z,100.00
2023-04-13T21:13:01.747Z,100.00
2023-04-13T21:18:07.342Z,100.00
2023-04-13T21:23:11.923Z,100.00
2023-04-13T21:28:15.929Z,100.00
2023-04-13T21:33:21.512Z,100.00
2023-04-13T21:38:25.659Z,100.00
2023-04-13T21:43:29.803Z,100.00
2023-04-13T21:48:35.171Z,100.00
2023-04-13T21:53:40.179Z,100.00
2023-04-13T21:58:45.432Z,100.00
2023-04-13T22:03:53.490Z,100.00
2023-04-13T22:08:58.115Z,100.00
2023-04-13T22:14:02.225Z,100.00
2023-04-13T22:19:07.516Z,100.00
2023-04-13T22:24:12.810Z,100.00
2023-04-13T22:29:16.964Z,100.00
2023-04-13T22:34:22.747Z,100.00
2023-04-13T22:39:26.719Z,100.00
2023-04-13T22:44:34.169Z,100.00
2023-04-13T22:49:39.516Z,100.00
2023-04-13T22:54:43.503Z,100.00
2023-04-13T22:59:47.649Z,100.00
2023-04-13T23:04:52.996Z,100.00
2023-04-13T23:09:57.171Z,100.00
2023-04-13T23:15:01.124Z,100.00
2023-04-13T23:20:08.173Z,100.00
2023-04-13T23:25:12.280Z,100.00
2023-04-13T23:30:16.476Z,100.00
2023-04-13T23:35:21.912Z,100.00
2023-04-13T23:40:26.013Z,100.00
2023-04-13T23:45:30.102Z,100.00
2023-04-13T23:50:35.388Z,100.00
2023-04-13T23:55:39.340Z,100.00
